createdAt,value
2023-04-22T00:00:49.218Z,61.28
2023-04-22T00:03:54.780Z,61.31
2023-04-22T00:06:56.881Z,61.33
2023-04-22T00:09:58.495Z,61.30
2023-04-22T00:13:00.373Z,61.65
2023-04-22T00:16:02.047Z,61.66
2023-04-22T00:19:04.200Z,61.76
2023-04-22T00:22:05.719Z,61.60
2023-04-22T00:25:08.952Z,62.03
2023-04-22T00:28:10.825Z,61.95
2023-04-22T00:31:12.600Z,61.57
2023-04-22T00:34:14.541Z,61.57
2023-04-22T00:37:16.203Z,61.63
2023-04-22T00:40:18.032Z,62.10
2023-04-22T00:43:19.575Z,62.47
2023-04-22T00:46:21.309Z,62.94
2023-04-22T00:49:23.016Z,62.57
2023-04-22T00:52:24.605Z,62.64
2023-04-22T00:55:26.577Z,62.87
2023-04-22T00:58:28.943Z,62.74
2023-04-22T01:01:31.172Z,63.08
2023-04-22T01:04:33.266Z,63.08
2023-04-22T01:07:35.786Z,63.46
2023-04-22T01:10:37.875Z,63.28
2023-04-22T01:13:39.529Z,63.27
2023-04-22T01:16:41.263Z,63.56
2023-04-22T01:19:43.756Z,64.02
2023-04-22T01:22:46.784Z,64.57
2023-04-22T01:25:49.060Z,65.14
2023-04-22T01:28:50.972Z,64.41
2023-04-22T01:31:53.173Z,64.69
2023-04-22T01:34:55.060Z,64.72
2023-04-22T01:37:56.837Z,64.22
2023-04-22T01:40:58.607Z,64.67
2023-04-22T01:44:00.283Z,64.79
2023-04-22T01:47:01.953Z,64.86
2023-04-22T01:50:03.656Z,64.79
2023-04-22T01:53:07.467Z,64.77
2023-04-22T01:56:09.444Z,65.04
2023-04-22T01:59:11.134Z,65.11
2023-04-22T02:02:12.738Z,65.08
2023-04-22T02:05:14.613Z,64.96
2023-04-22T02:08:16.387Z,65.06
2023-04-22T02:11:17.973Z,65.07
2023-04-22T02:14:19.753Z,65.14
2023-04-22T02:17:21.279Z,65.01
2023-04-22T02:20:23.030Z,65.60
2023-04-22T02:23:24.640Z,65.44
2023-04-22T02:26:26.449Z,65.38
2023-04-22T02:29:28.146Z,65.62
2023-04-22T02:32:29.799Z,65.28
2023-04-22T02:35:31.643Z,65.59
2023-04-22T02:38:33.276Z,65.26
2023-04-22T02:41:34.884Z,65.18
2023-04-22T02:44:36.635Z,65.30
2023-04-22T02:47:38.201Z,66.26
2023-04-22T02:50:39.901Z,66.11
2023-04-22T02:53:41.602Z,65.84
2023-04-22T02:56:43.254Z,65.48
2023-04-22T02:59:44.950Z,65.78
2023-04-22T03:02:46.644Z,66.17
2023-04-22T03:05:48.554Z,65.96
2023-04-22T03:08:50.301Z,66.19
2023-04-22T03:11:51.994Z,66.15
2023-04-22T03:14:53.610Z,66.39
2023-04-22T03:17:55.219Z,66.11
2023-04-22T03:20:56.933Z,66.10
2023-04-22T03:23:59.172Z,66.29
2023-04-22T03:27:00.859Z,66.47
2023-04-22T03:30:03.829Z,66.41
2023-04-22T03:33:05.587Z,66.67
2023-04-22T03:36:07.328Z,66.66
2023-04-22T03:39:09.120Z,66.57
2023-04-22T03:42:12.367Z,66.62
2023-04-22T03:45:14.004Z,66.28
2023-04-22T03:48:15.630Z,66.47
2023-04-22T03:51:17.224Z,66.26
2023-04-22T03:54:19.234Z,66.56
2023-04-22T03:57:20.941Z,66.48
2023-04-22T04:00:22.479Z,66.43
2023-04-22T04:03:26.196Z,66.35
2023-04-22T04:06:29.155Z,66.28
2023-04-22T04:09:30.872Z,66.35
2023-04-22T04:12:32.501Z,66.39
2023-04-22T04:15:34.285Z,66.70
2023-04-22T04:18:35.836Z,66.63
2023-04-22T04:21:37.638Z,66.86
2023-04-22T04:24:39.195Z,67.15
2023-04-22T04:27:40.860Z,67.11
2023-04-22T04:30:42.484Z,67.03
2023-04-22T04:33:44.472Z,66.81
2023-04-22T04:36:46.080Z,67.12
2023-04-22T04:39:47.770Z,67.30
2023-04-22T04:42:49.431Z,67.44
2023-04-22T04:45:51.919Z,67.25
2023-04-22T04:48:53.619Z,67.13
2023-04-22T04:51:55.146Z,67.48
2023-04-22T04:54:56.859Z,67.21
2023-04-22T04:57:58.430Z,67.58
2023-04-22T05:01:00.123Z,67.80
2023-04-22T05:04:02.170Z,68.15
2023-04-22T05:07:03.759Z,68.54
2023-04-22T05:10:06.106Z,68.87
2023-04-22T05:13:07.906Z,69.56
2023-04-22T05:16:09.546Z,69.32
2023-04-22T05:19:11.041Z,68.85
2023-04-22T05:22:12.731Z,68.54
2023-04-22T05:25:14.314Z,68.26
2023-04-22T05:28:15.876Z,68.10
2023-04-22T05:31:17.488Z,68.10
2023-04-22T05:34:19.240Z,67.60
2023-04-22T05:37:20.885Z,67.93
2023-04-22T05:40:23.074Z,67.95
2023-04-22T05:43:24.715Z,67.82
2023-04-22T05:46:26.460Z,67.70
2023-04-22T05:49:28.223Z,67.53
2023-04-22T05:52:29.967Z,66.78
2023-04-22T05:55:31.677Z,66.37
2023-04-22T05:58:33.471Z,66.15
2023-04-22T06:01:38.128Z,65.74
2023-04-22T06:04:39.935Z,65.75
2023-04-22T06:07:42.064Z,65.22
2023-04-22T06:10:44.167Z,64.69
2023-04-22T06:13:45.799Z,64.71
2023-04-22T06:16:48.057Z,64.24
2023-04-22T06:19:49.754Z,64.41
2023-04-22T06:22:51.421Z,64.02
2023-04-22T06:25:53.284Z,63.84
2023-04-22T06:28:55.007Z,63.69
2023-04-22T06:31:56.787Z,63.64
2023-04-22T06:34:58.451Z,62.59
2023-04-22T06:38:00.233Z,62.65
2023-04-22T06:41:01.948Z,62.09
2023-04-22T06:44:03.719Z,61.41
2023-04-22T06:47:05.550Z,60.57
2023-04-22T06:50:09.034Z,60.70
2023-04-22T06:53:10.724Z,60.11
2023-04-22T06:56:12.616Z,60.12
2023-04-22T06:59:14.283Z,60.16
2023-04-22T07:02:16.162Z,60.36
2023-04-22T07:05:17.949Z,59.51
2023-04-22T07:08:19.606Z,58.95
2023-04-22T07:11:21.279Z,58.39
2023-04-22T07:14:25.116Z,58.04
2023-04-22T07:17:27.233Z,58.71
2023-04-22T07:20:28.910Z,58.44
2023-04-22T07:23:30.622Z,58.17
2023-04-22T07:26:32.453Z,58.19
2023-04-22T07:29:34.297Z,57.61
2023-04-22T07:32:35.967Z,57.06
2023-04-22T07:35:37.850Z,57.11
2023-04-22T07:38:39.606Z,56.99
2023-04-22T07:41:41.407Z,55.32
2023-04-22T07:44:43.132Z,54.38
2023-04-22T07:47:45.325Z,53.17
2023-04-22T07:50:47.058Z,53.36
2023-04-22T07:53:48.845Z,54.00
2023-04-22T07:56:51.166Z,52.93
2023-04-22T07:59:52.867Z,52.31
2023-04-22T08:02:54.702Z,51.28
2023-04-22T08:05:56.463Z,51.13
2023-04-22T08:08:58.082Z,51.14
2023-04-22T08:12:00.019Z,49.38
2023-04-22T08:15:01.594Z,49.25
2023-04-22T08:18:03.901Z,49.86
2023-04-22T08:21:05.689Z,49.85
2023-04-22T08:24:07.490Z,48.36
2023-04-22T08:27:09.116Z,49.07
2023-04-22T08:30:11.246Z,48.13
2023-04-22T08:33:12.873Z,47.78
2023-04-22T08:36:14.860Z,47.63
2023-04-22T08:39:16.545Z,47.60
2023-04-22T08:42:20.126Z,47.15
2023-04-22T08:45:22.529Z,46.31
2023-04-22T08:48:26.459Z,45.49
2023-04-22T08:51:28.143Z,43.53
2023-04-22T08:54:29.878Z,44.48
2023-04-22T08:57:31.675Z,44.19
2023-04-22T09:00:34.233Z,42.65
2023-04-22T09:03:38.631Z,42.05
2023-04-22T09:06:40.453Z,41.73
2023-04-22T09:09:42.674Z,41.83
2023-04-22T09:12:44.648Z,40.62
2023-04-22T09:15:46.238Z,40.81
2023-04-22T09:18:48.150Z,39.94
2023-04-22T09:21:51.421Z,39.78
2023-04-22T09:24:54.873Z,40.31
2023-04-22T09:27:58.193Z,38.60
2023-04-22T09:31:00.908Z,38.28
2023-04-22T09:34:02.575Z,37.45
2023-04-22T09:37:04.515Z,37.03
2023-04-22T09:40:06.439Z,37.74
2023-04-22T09:43:09.200Z,37.42
2023-04-22T09:46:10.860Z,37.11
2023-04-22T09:49:16.372Z,36.75
2023-04-22T09:52:25.101Z,37.03
2023-04-22T09:55:28.674Z,36.78
2023-04-22T09:58:30.311Z,36.91
2023-04-22T10:01:36.610Z,36.92
2023-04-22T10:04:38.610Z,36.62
2023-04-22T10:07:40.326Z,35.97
2023-04-22T10:10:42.911Z,35.82
2023-04-22T10:13:44.785Z,35.95
2023-04-22T10:16:47.599Z,35.45
2023-04-22T10:19:49.739Z,34.20
2023-04-22T10:22:53.130Z,33.79
2023-04-22T10:25:55.677Z,33.40
2023-04-22T10:28:57.706Z,32.73
2023-04-22T10:32:26.834Z,33.28
2023-04-22T10:35:28.519Z,33.67
2023-04-22T10:38:30.110Z,33.28
2023-04-22T10:41:34.451Z,32.81
2023-04-22T10:44:53.472Z,31.47
2023-04-22T10:47:55.094Z,32.05
2023-04-22T10:50:56.705Z,32.40
2023-04-22T10:53:59.440Z,29.57
2023-04-22T10:57:04.077Z,31.79
2023-04-22T11:00:19.563Z,32.20
2023-04-22T11:03:27.253Z,31.41
2023-04-22T11:06:29.033Z,31.33
2023-04-22T11:09:30.737Z,30.97
2023-04-22T11:12:35.140Z,31.23
2023-04-22T11:15:38.819Z,30.71
2023-04-22T11:18:40.607Z,31.41
2023-04-22T11:21:42.413Z,31.18
2023-04-22T11:24:54.941Z,31.77
2023-04-22T11:27:57.156Z,31.25
2023-04-22T11:31:03.787Z,31.50
2023-04-22T11:34:09.131Z,30.95
2023-04-22T11:37:10.756Z,30.62
2023-04-22T11:40:28.897Z,30.34
2023-04-22T11:43:32.287Z,27.55
2023-04-22T11:46:33.975Z,26.24
2023-04-22T11:49:35.636Z,26.84
2023-04-22T11:52:46.223Z,28.00
2023-04-22T11:55:50.469Z,29.00
2023-04-22T11:58:52.147Z,26.94
2023-04-22T12:01:53.920Z,28.73
2023-04-22T12:04:58.872Z,29.85
2023-04-22T12:08:02.842Z,30.05
2023-04-22T12:11:06.474Z,30.04
2023-04-22T12:14:08.119Z,30.25
2023-04-22T12:17:09.841Z,29.87
2023-04-22T12:20:12.231Z,29.65
2023-04-22T12:23:16.274Z,29.90
2023-04-22T12:26:19.135Z,30.44
2023-04-22T12:29:32.093Z,29.66
2023-04-22T12:32:33.840Z,30.48
2023-04-22T12:35:35.497Z,30.58
2023-04-22T12:38:37.672Z,30.40
2023-04-22T12:41:39.404Z,30.43
2023-04-22T12:44:41.029Z,30.64
2023-04-22T12:47:43.006Z,30.26
2023-04-22T12:50:44.733Z,28.50
2023-04-22T12:53:46.400Z,28.38
2023-04-22T12:56:48.628Z,26.76
2023-04-22T12:59:50.299Z,28.45
2023-04-22T13:02:52.154Z,29.37
2023-04-22T13:05:54.559Z,29.64
2023-04-22T13:08:56.348Z,28.07
2023-04-22T13:11:57.987Z,28.28
2023-04-22T13:14:59.706Z,26.64
2023-04-22T13:18:02.109Z,28.22
2023-04-22T13:21:04.086Z,28.77
2023-04-22T13:24:05.980Z,28.78
2023-04-22T13:27:07.671Z,28.31
2023-04-22T13:30:09.836Z,28.46
2023-04-22T13:33:11.582Z,28.46
2023-04-22T13:36:13.293Z,28.55
2023-04-22T13:39:14.923Z,28.26
2023-04-22T13:42:16.950Z,27.50
2023-04-22T13:45:18.678Z,27.56
2023-04-22T13:48:20.328Z,27.35
2023-04-22T13:51:22.807Z,27.37
2023-04-22T13:54:24.486Z,27.27
2023-04-22T13:57:26.205Z,27.26
2023-04-22T14:00:28.098Z,26.98
2023-04-22T14:03:30.168Z,26.94
2023-04-22T14:06:31.897Z,26.72
2023-04-22T14:09:33.515Z,27.08
2023-04-22T14:12:35.205Z,27.42
2023-04-22T14:15:38.392Z,27.67
2023-04-22T14:18:41.106Z,27.27
2023-04-22T14:21:42.898Z,26.51
2023-04-22T14:24:44.774Z,26.74
2023-04-22T14:27:46.405Z,26.77
2023-04-22T14:30:48.223Z,26.49
2023-04-22T14:33:50.555Z,25.70
2023-04-22T14:36:52.400Z,25.11
2023-04-22T14:39:54.056Z,25.33
2023-04-22T14:43:00.454Z,25.60
2023-04-22T14:46:02.310Z,25.63
2023-04-22T14:49:04.090Z,25.53
2023-04-22T14:52:06.032Z,25.36
2023-04-22T14:55:19.528Z,25.15
2023-04-22T14:58:24.018Z,25.11
2023-04-22T15:01:25.792Z,24.71
2023-04-22T15:04:27.549Z,24.64
2023-04-22T15:07:29.940Z,24.44
2023-04-22T15:10:31.633Z,24.80
2023-04-22T15:13:33.437Z,24.64
2023-04-22T15:16:35.340Z,24.41
2023-04-22T15:19:37.080Z,24.60
2023-04-22T15:22:39.730Z,24.86
2023-04-22T15:25:44.993Z,25.44
2023-04-22T15:28:46.702Z,25.63
2023-04-22T15:31:48.420Z,26.07
2023-04-22T15:34:50.110Z,26.56
2023-04-22T15:37:51.883Z,27.04
2023-04-22T15:40:53.908Z,27.66
2023-04-22T15:43:55.532Z,27.52
2023-04-22T15:46:57.954Z,26.89
2023-04-22T15:49:59.702Z,28.12
2023-04-22T15:53:01.376Z,27.90
2023-04-22T15:56:03.016Z,28.33
2023-04-22T15:59:04.744Z,28.64
2023-04-22T16:02:07.167Z,28.98
2023-04-22T16:05:09.390Z,29.23
2023-04-22T16:08:11.048Z,29.30
2023-04-22T16:11:14.212Z,29.80
2023-04-22T16:14:15.898Z,30.10
2023-04-22T16:17:18.267Z,30.46
2023-04-22T16:20:20.046Z,30.88
2023-04-22T16:23:22.054Z,31.06
2023-04-22T16:26:23.630Z,31.40
2023-04-22T16:29:25.307Z,31.75
2023-04-22T16:32:26.957Z,31.79
2023-04-22T16:35:28.781Z,32.13
2023-04-22T16:38:30.377Z,32.30
2023-04-22T16:41:33.947Z,32.53
2023-04-22T16:44:35.649Z,32.71
2023-04-22T16:47:37.538Z,32.93
2023-04-22T16:50:39.256Z,33.20
2023-04-22T16:53:40.838Z,33.23
2023-04-22T16:56:42.642Z,33.55
2023-04-22T16:59:44.285Z,33.75
2023-04-22T17:02:46.129Z,33.94
2023-04-22T17:05:48.170Z,34.01
2023-04-22T17:08:49.844Z,34.19
2023-04-22T17:11:51.454Z,34.44
2023-04-22T17:14:53.099Z,34.69
2023-04-22T17:17:54.785Z,34.97
2023-04-22T17:20:56.434Z,35.23
2023-04-22T17:23:58.189Z,35.63
2023-04-22T17:26:59.805Z,35.78
2023-04-22T17:30:01.598Z,36.04
2023-04-22T17:33:03.673Z,36.23
2023-04-22T17:36:05.668Z,36.49
2023-04-22T17:39:07.350Z,36.72
2023-04-22T17:42:08.999Z,37.01
2023-04-22T17:45:11.336Z,37.16
2023-04-22T17:48:13.117Z,37.37
2023-04-22T17:51:15.241Z,37.68
2023-04-22T17:54:17.032Z,38.11
2023-04-22T17:57:18.622Z,38.34
2023-04-22T18:00:20.341Z,38.61
2023-04-22T18:03:22.210Z,38.80
2023-04-22T18:06:24.249Z,39.13
2023-04-22T18:09:26.034Z,39.29
2023-04-22T18:12:29.253Z,39.51
2023-04-22T18:15:32.517Z,39.72
2023-04-22T18:18:34.441Z,39.96
2023-04-22T18:21:38.141Z,40.24
2023-04-22T18:24:41.664Z,40.46
2023-04-22T18:27:44.393Z,40.76
2023-04-22T18:30:46.893Z,40.77
2023-04-22T18:33:48.504Z,41.02
2023-04-22T18:36:50.558Z,41.00
2023-04-22T18:39:52.179Z,40.65
2023-04-22T18:42:53.855Z,40.58
2023-04-22T18:45:55.694Z,40.85
2023-04-22T18:48:57.572Z,41.11
2023-04-22T18:52:00.173Z,41.55
2023-04-22T18:55:02.177Z,42.23
2023-04-22T18:58:03.826Z,42.35
2023-04-22T19:01:05.787Z,42.65
2023-04-22T19:04:07.724Z,42.78
2023-04-22T19:07:09.671Z,43.23
2023-04-22T19:10:11.414Z,43.79
2023-04-22T19:13:18.860Z,43.88
2023-04-22T19:16:30.757Z,44.17
2023-04-22T19:19:32.512Z,44.47
2023-04-22T19:22:34.518Z,44.69
2023-04-22T19:25:36.218Z,44.81
2023-04-22T19:28:37.995Z,45.13
2023-04-22T19:31:39.692Z,45.21
2023-04-22T19:34:41.489Z,45.61
2023-04-22T19:37:43.247Z,45.72
2023-04-22T19:40:45.191Z,45.92
2023-04-22T19:43:46.894Z,46.14
2023-04-22T19:46:48.682Z,46.07
2023-04-22T19:49:50.530Z,46.36
2023-04-22T19:53:00.626Z,46.56
2023-04-22T19:56:02.641Z,46.76
2023-04-22T19:59:05.271Z,46.73
2023-04-22T20:02:07.970Z,46.90
2023-04-22T20:05:10.330Z,47.04
2023-04-22T20:08:12.070Z,47.27
2023-04-22T20:11:14.098Z,47.57
2023-04-22T20:14:16.205Z,47.61
2023-04-22T20:17:18.106Z,47.83
2023-04-22T20:20:19.821Z,47.83
2023-04-22T20:23:24.030Z,48.26
2023-04-22T20:26:25.687Z,48.64
2023-04-22T20:29:27.577Z,48.70
2023-04-22T20:32:29.545Z,48.80
2023-04-22T20:35:31.708Z,48.84
2023-04-22T20:38:35.483Z,49.02
2023-04-22T20:41:38.218Z,49.30
2023-04-22T20:44:40.100Z,49.34
2023-04-22T20:47:42.540Z,49.73
2023-04-22T20:50:44.227Z,50.35
2023-04-22T20:53:45.879Z,50.81
2023-04-22T20:56:47.621Z,51.17
2023-04-22T20:59:49.143Z,51.46
2023-04-22T21:02:51.223Z,51.59
2023-04-22T21:05:53.608Z,51.57
2023-04-22T21:08:55.559Z,52.20
2023-04-22T21:11:57.456Z,52.47
2023-04-22T21:14:59.602Z,52.56
2023-04-22T21:18:02.391Z,52.59
2023-04-22T21:21:05.178Z,52.62
2023-04-22T21:24:07.491Z,52.64
2023-04-22T21:27:09.829Z,52.62
2023-04-22T21:30:12.284Z,52.67
2023-04-22T21:33:13.964Z,52.63
2023-04-22T21:36:15.973Z,52.65
2023-04-22T21:39:17.795Z,52.72
2023-04-22T21:42:19.492Z,52.81
2023-04-22T21:45:21.298Z,52.90
2023-04-22T21:48:23.044Z,53.05
2023-04-22T21:51:24.653Z,53.12
2023-04-22T21:54:26.437Z,53.41
2023-04-22T21:57:27.983Z,53.41
2023-04-22T22:00:29.673Z,53.62
2023-04-22T22:03:31.615Z,53.65
2023-04-22T22:06:33.495Z,53.91
2023-04-22T22:09:35.216Z,54.00
2023-04-22T22:12:36.872Z,54.06
2023-04-22T22:15:38.512Z,54.39
2023-04-22T22:18:40.355Z,54.53
2023-04-22T22:21:41.903Z,54.62
2023-04-22T22:24:43.842Z,54.77
2023-04-22T22:27:45.825Z,54.83
2023-04-22T22:30:47.361Z,54.88
2023-04-22T22:33:49.145Z,54.86
2023-04-22T22:36:50.825Z,54.98
2023-04-22T22:39:52.384Z,55.05
2023-04-22T22:42:53.925Z,55.22
2023-04-22T22:45:55.647Z,55.12
2023-04-22T22:48:57.762Z,55.07
2023-04-22T22:51:59.599Z,55.30
2023-04-22T22:55:01.173Z,55.12
2023-04-22T22:58:02.663Z,55.02
2023-04-22T23:01:05.430Z,55.19
2023-04-22T23:04:07.439Z,54.94
2023-04-22T23:07:09.586Z,55.24
2023-04-22T23:10:11.218Z,55.45
2023-04-22T23:13:12.846Z,55.87
2023-04-22T23:16:14.740Z,55.96
2023-04-22T23:19:17.182Z,56.27
2023-04-22T23:22:19.176Z,56.33
2023-04-22T23:25:21.244Z,56.53
2023-04-22T23:28:23.235Z,56.69
2023-04-22T23:31:25.271Z,56.97
2023-04-22T23:34:27.326Z,57.10
2023-04-22T23:37:29.658Z,57.10
2023-04-22T23:40:31.322Z,57.34
2023-04-22T23:43:32.912Z,57.43
2023-04-22T23:46:34.475Z,57.74
2023-04-22T23:49:36.462Z,57.78
2023-04-22T23:52:37.941Z,57.64
2023-04-22T23:55:40.061Z,57.91
2023-04-22T23:58:41.944Z,57.83
